sensor_id;sensor_type;location;lat;lon;timestamp;temperature;humidity
12025;DHT22;6073;53.230;10.444;2022-11-03T00:00:31;6.60;99.90
12025;DHT22;6073;53.230;10.444;2022-11-03T00:02:57;6.60;99.90
12025;DHT22;6073;53.230;10.444;2022-11-03T00:05:22;6.50;99.90
12025;DHT22;6073;53.230;10.444;2022-11-03T00:08:06;6.50;99.90
12025;DHT22;6073;53.230;10.444;2022-11-03T00:10:32;6.60;99.90
12025;DHT22;6073;53.230;10.444;2022-11-03T00:12:57;6.50;99.90
12025;DHT22;6073;53.230;10.444;2022-11-03T00:15:23;6.50;99.90
12025;DHT22;6073;53.230;10.444;2022-11-03T00:17:48;6.60;99.90
12025;DHT22;6073;53.230;10.444;2022-11-03T00:20:14;6.50;99.90
12025;DHT22;6073;53.230;10.444;2022-11-03T00:22:40;6.50;99.90
12025;DHT22;6073;53.230;10.444;2022-11-03T00:25:06;6.50;99.90
12025;DHT22;6073;53.230;10.444;2022-11-03T00:27:31;6.40;99.90
12025;DHT22;6073;53.230;10.444;2022-11-03T00:29:57;6.40;99.90
12025;DHT22;6073;53.230;10.444;2022-11-03T00:32:22;6.40;99.90
12025;DHT22;6073;53.230;10.444;2022-11-03T00:34:48;6.40;99.90
12025;DHT22;6073;53.230;10.444;2022-11-03T00:37:14;6.40;99.90
12025;DHT22;6073;53.230;10.444;2022-11-03T00:39:39;6.50;99.90
12025;DHT22;6073;53.230;10.444;2022-11-03T00:42:05;6.40;99.90
12025;DHT22;6073;53.230;10.444;2022-11-03T00:44:33;6.40;99.90
12025;DHT22;6073;53.230;10.444;2022-11-03T00:46:59;6.40;99.90
12025;DHT22;6073;53.230;10.444;2022-11-03T00:49:24;6.40;99.90
12025;DHT22;6073;53.230;10.444;2022-11-03T00:51:50;6.40;99.90
12025;DHT22;6073;53.230;10.444;2022-11-03T00:54:15;6.40;99.90
12025;DHT22;6073;53.230;10.444;2022-11-03T00:56:41;6.40;99.90
12025;DHT22;6073;53.230;10.444;2022-11-03T00:59:09;6.40;99.90
12025;DHT22;6073;53.230;10.444;2022-11-03T01:01:40;6.50;99.90
12025;DHT22;6073;53.230;10.444;2022-11-03T01:04:06;6.50;99.90
12025;DHT22;6073;53.230;10.444;2022-11-03T01:06:52;6.50;99.90
12025;DHT22;6073;53.230;10.444;2022-11-03T01:09:23;6.50;99.90
12025;DHT22;6073;53.230;10.444;2022-11-03T01:12:04;6.50;99.90
12025;DHT22;6073;53.230;10.444;2022-11-03T01:14:39;6.60;99.90
12025;DHT22;6073;53.230;10.444;2022-11-03T01:17:13;6.60;99.90
12025;DHT22;6073;53.230;10.444;2022-11-03T01:19:39;6.60;99.90
12025;DHT22;6073;53.230;10.444;2022-11-03T01:22:11;6.60;99.90
12025;DHT22;6073;53.230;10.444;2022-11-03T01:24:41;6.60;99.90
12025;DHT22;6073;53.230;10.444;2022-11-03T01:27:11;6.60;99.90
12025;DHT22;6073;53.230;10.444;2022-11-03T01:29:40;6.60;99.90
12025;DHT22;6073;53.230;10.444;2022-11-03T01:32:06;6.60;99.90
12025;DHT22;6073;53.230;10.444;2022-11-03T01:34:33;6.60;99.90
12025;DHT22;6073;53.230;10.444;2022-11-03T01:36:59;6.60;99.90
12025;DHT22;6073;53.230;10.444;2022-11-03T01:39:24;6.60;99.90
12025;DHT22;6073;53.230;10.444;2022-11-03T01:41:51;6.60;99.90
12025;DHT22;6073;53.230;10.444;2022-11-03T01:46:50;6.70;99.90
12025;DHT22;6073;53.230;10.444;2022-11-03T01:49:26;6.60;99.90
12025;DHT22;6073;53.230;10.444;2022-11-03T01:52:02;6.60;99.90
12025;DHT22;6073;53.230;10.444;2022-11-03T01:54:30;6.50;99.90
12025;DHT22;6073;53.230;10.444;2022-11-03T01:56:57;6.50;99.90
12025;DHT22;6073;53.230;10.444;2022-11-03T01:59:24;6.60;99.90
12025;DHT22;6073;53.230;10.444;2022-11-03T02:01:50;6.60;99.90
12025;DHT22;6073;53.230;10.444;2022-11-03T02:04:22;6.70;99.90
12025;DHT22;6073;53.230;10.444;2022-11-03T02:06:57;6.70;99.90
12025;DHT22;6073;53.230;10.444;2022-11-03T02:09:24;6.70;99.90
12025;DHT22;6073;53.230;10.444;2022-11-03T02:11:51;6.60;99.90
12025;DHT22;6073;53.230;10.444;2022-11-03T02:14:48;6.70;99.90
12025;DHT22;6073;53.230;10.444;2022-11-03T02:17:15;6.70;99.90
12025;DHT22;6073;53.230;10.444;2022-11-03T02:19:46;6.70;99.90
12025;DHT22;6073;53.230;10.444;2022-11-03T02:25:42;6.60;99.90
12025;DHT22;6073;53.230;10.444;2022-11-03T02:28:08;6.60;99.90
12025;DHT22;6073;53.230;10.444;2022-11-03T02:30:50;6.60;99.90
12025;DHT22;6073;53.230;10.444;2022-11-03T02:33:26;6.60;99.90
12025;DHT22;6073;53.230;10.444;2022-11-03T02:36:02;6.60;99.90
12025;DHT22;6073;53.230;10.444;2022-11-03T02:38:31;6.60;99.90
12025;DHT22;6073;53.230;10.444;2022-11-03T02:41:02;6.70;99.90
12025;DHT22;6073;53.230;10.444;2022-11-03T02:43:30;6.70;99.90
12025;DHT22;6073;53.230;10.444;2022-11-03T02:45:55;6.70;99.90
12025;DHT22;6073;53.230;10.444;2022-11-03T02:48:21;6.70;99.90
12025;DHT22;6073;53.230;10.444;2022-11-03T02:50:47;6.70;99.90
12025;DHT22;6073;53.230;10.444;2022-11-03T02:53:16;6.70;99.90
12025;DHT22;6073;53.230;10.444;2022-11-03T02:55:52;6.70;99.90
12025;DHT22;6073;53.230;10.444;2022-11-03T02:58:44;6.70;99.90
12025;DHT22;6073;53.230;10.444;2022-11-03T03:01:22;6.70;99.90
12025;DHT22;6073;53.230;10.444;2022-11-03T03:03:57;6.80;99.90
12025;DHT22;6073;53.230;10.444;2022-11-03T03:06:32;6.80;99.90
12025;DHT22;6073;53.230;10.444;2022-11-03T03:09:03;6.80;99.90
12025;DHT22;6073;53.230;10.444;2022-11-03T03:11:32;6.80;99.90
12025;DHT22;6073;53.230;10.444;2022-11-03T03:14:14;6.80;99.90
12025;DHT22;6073;53.230;10.444;2022-11-03T03:22:46;6.90;99.90
12025;DHT22;6073;53.230;10.444;2022-11-03T03:25:29;6.90;99.90
12025;DHT22;6073;53.230;10.444;2022-11-03T03:28:10;6.90;99.90
12025;DHT22;6073;53.230;10.444;2022-11-03T03:30:38;7.00;99.90
12025;DHT22;6073;53.230;10.444;2022-11-03T03:33:06;7.00;99.90
12025;DHT22;6073;53.230;10.444;2022-11-03T03:35:38;6.90;99.90
12025;DHT22;6073;53.230;10.444;2022-11-03T03:38:10;7.00;99.90
12025;DHT22;6073;53.230;10.444;2022-11-03T03:40:39;6.90;99.90
12025;DHT22;6073;53.230;10.444;2022-11-03T03:43:09;6.90;99.90
12025;DHT22;6073;53.230;10.444;2022-11-03T03:45:37;6.90;99.90
12025;DHT22;6073;53.230;10.444;2022-11-03T03:48:04;6.90;99.90
12025;DHT22;6073;53.230;10.444;2022-11-03T03:50:33;6.90;99.90
12025;DHT22;6073;53.230;10.444;2022-11-03T03:53:01;6.90;99.90
12025;DHT22;6073;53.230;10.444;2022-11-03T03:55:49;6.90;99.90
12025;DHT22;6073;53.230;10.444;2022-11-03T03:58:15;6.90;99.90
12025;DHT22;6073;53.230;10.444;2022-11-03T04:00:41;6.90;99.90
12025;DHT22;6073;53.230;10.444;2022-11-03T04:03:14;6.90;99.90
12025;DHT22;6073;53.230;10.444;2022-11-03T04:05:39;6.90;99.90
12025;DHT22;6073;53.230;10.444;2022-11-03T04:08:05;6.90;99.90
12025;DHT22;6073;53.230;10.444;2022-11-03T04:10:31;6.90;99.90
12025;DHT22;6073;53.230;10.444;2022-11-03T04:12:56;6.90;99.90
12025;DHT22;6073;53.230;10.444;2022-11-03T04:15:40;6.90;99.90
12025;DHT22;6073;53.230;10.444;2022-11-03T04:18:24;6.90;99.90
12025;DHT22;6073;53.230;10.444;2022-11-03T04:21:11;6.90;99.90
12025;DHT22;6073;53.230;10.444;2022-11-03T04:23:56;6.90;99.90
12025;DHT22;6073;53.230;10.444;2022-11-03T04:26:22;6.90;99.90
12025;DHT22;6073;53.230;10.444;2022-11-03T04:28:49;6.90;99.90
12025;DHT22;6073;53.230;10.444;2022-11-03T04:31:17;7.00;99.90
12025;DHT22;6073;53.230;10.444;2022-11-03T04:33:44;7.00;99.90
12025;DHT22;6073;53.230;10.444;2022-11-03T04:36:19;7.00;99.90
12025;DHT22;6073;53.230;10.444;2022-11-03T04:38:45;6.90;99.90
12025;DHT22;6073;53.230;10.444;2022-11-03T04:41:15;6.90;99.90
12025;DHT22;6073;53.230;10.444;2022-11-03T04:43:41;7.00;99.90
12025;DHT22;6073;53.230;10.444;2022-11-03T04:46:10;7.00;99.90
12025;DHT22;6073;53.230;10.444;2022-11-03T04:48:36;6.90;99.90
12025;DHT22;6073;53.230;10.444;2022-11-03T04:51:10;6.90;99.90
12025;DHT22;6073;53.230;10.444;2022-11-03T04:53:38;6.90;99.90
12025;DHT22;6073;53.230;10.444;2022-11-03T04:56:14;7.00;99.90
12025;DHT22;6073;53.230;10.444;2022-11-03T04:58:39;7.00;99.90
12025;DHT22;6073;53.230;10.444;2022-11-03T05:01:12;7.00;99.90
12025;DHT22;6073;53.230;10.444;2022-11-03T05:03:38;6.90;99.90
12025;DHT22;6073;53.230;10.444;2022-11-03T05:06:23;6.90;99.90
12025;DHT22;6073;53.230;10.444;2022-11-03T05:08:55;6.90;99.90
12025;DHT22;6073;53.230;10.444;2022-11-03T05:11:29;6.90;99.90
12025;DHT22;6073;53.230;10.444;2022-11-03T05:13:58;6.90;99.90
12025;DHT22;6073;53.230;10.444;2022-11-03T05:16:25;6.90;99.90
12025;DHT22;6073;53.230;10.444;2022-11-03T05:18:51;6.90;99.90
12025;DHT22;6073;53.230;10.444;2022-11-03T05:21:19;6.90;99.90
12025;DHT22;6073;53.230;10.444;2022-11-03T05:23:49;6.90;99.90
12025;DHT22;6073;53.230;10.444;2022-11-03T05:26:21;6.90;99.90
12025;DHT22;6073;53.230;10.444;2022-11-03T05:28:54;6.90;99.90
12025;DHT22;6073;53.230;10.444;2022-11-03T05:31:29;6.80;99.90
12025;DHT22;6073;53.230;10.444;2022-11-03T05:34:30;6.80;99.90
12025;DHT22;6073;53.230;10.444;2022-11-03T05:39:46;6.80;99.90
12025;DHT22;6073;53.230;10.444;2022-11-03T05:44:47;6.80;99.90
12025;DHT22;6073;53.230;10.444;2022-11-03T05:47:21;6.80;99.90
12025;DHT22;6073;53.230;10.444;2022-11-03T05:49:49;6.80;99.90
12025;DHT22;6073;53.230;10.444;2022-11-03T05:52:23;6.80;99.90
12025;DHT22;6073;53.230;10.444;2022-11-03T05:54:50;6.80;99.90
12025;DHT22;6073;53.230;10.444;2022-11-03T05:57:17;6.70;99.90
12025;DHT22;6073;53.230;10.444;2022-11-03T05:59:44;6.70;99.90
12025;DHT22;6073;53.230;10.444;2022-11-03T06:02:31;6.70;99.90
12025;DHT22;6073;53.230;10.444;2022-11-03T06:04:57;6.70;99.90
12025;DHT22;6073;53.230;10.444;2022-11-03T06:07:29;6.60;99.90
12025;DHT22;6073;53.230;10.444;2022-11-03T06:09:57;6.70;99.90
12025;DHT22;6073;53.230;10.444;2022-11-03T06:12:23;6.60;99.90
12025;DHT22;6073;53.230;10.444;2022-11-03T06:14:51;6.70;99.90
12025;DHT22;6073;53.230;10.444;2022-11-03T06:17:25;6.70;99.90
12025;DHT22;6073;53.230;10.444;2022-11-03T06:19:57;6.70;99.90
12025;DHT22;6073;53.230;10.444;2022-11-03T06:22:33;6.70;99.90
12025;DHT22;6073;53.230;10.444;2022-11-03T06:27:55;6.70;99.90
12025;DHT22;6073;53.230;10.444;2022-11-03T06:30:31;6.70;99.90
12025;DHT22;6073;53.230;10.444;2022-11-03T06:33:03;6.80;99.90
12025;DHT22;6073;53.230;10.444;2022-11-03T06:35:31;6.80;99.90
12025;DHT22;6073;53.230;10.444;2022-11-03T06:37:57;6.90;99.90
12025;DHT22;6073;53.230;10.444;2022-11-03T06:40:29;6.90;99.90
12025;DHT22;6073;53.230;10.444;2022-11-03T06:42:57;6.90;99.90
12025;DHT22;6073;53.230;10.444;2022-11-03T06:45:24;7.00;99.90
12025;DHT22;6073;53.230;10.444;2022-11-03T06:47:52;7.00;99.90
12025;DHT22;6073;53.230;10.444;2022-11-03T06:50:25;7.00;99.90
12025;DHT22;6073;53.230;10.444;2022-11-03T06:52:53;7.00;99.90
12025;DHT22;6073;53.230;10.444;2022-11-03T06:55:28;7.00;99.90
12025;DHT22;6073;53.230;10.444;2022-11-03T06:57:59;7.10;99.90
12025;DHT22;6073;53.230;10.444;2022-11-03T07:00:28;7.20;99.90
12025;DHT22;6073;53.230;10.444;2022-11-03T07:05:44;7.30;99.90
12025;DHT22;6073;53.230;10.444;2022-11-03T07:08:22;7.50;99.90
12025;DHT22;6073;53.230;10.444;2022-11-03T07:13:26;7.60;99.90
12025;DHT22;6073;53.230;10.444;2022-11-03T07:15:53;7.70;99.90
12025;DHT22;6073;53.230;10.444;2022-11-03T07:18:22;7.80;99.90
12025;DHT22;6073;53.230;10.444;2022-11-03T07:20:49;7.80;99.90
12025;DHT22;6073;53.230;10.444;2022-11-03T07:23:23;8.00;99.90
12025;DHT22;6073;53.230;10.444;2022-11-03T07:25:54;8.00;99.90
12025;DHT22;6073;53.230;10.444;2022-11-03T07:28:34;8.10;99.90
12025;DHT22;6073;53.230;10.444;2022-11-03T07:31:11;8.20;99.90
12025;DHT22;6073;53.230;10.444;2022-11-03T07:33:38;8.30;99.90
12025;DHT22;6073;53.230;10.444;2022-11-03T07:36:05;8.30;99.90
12025;DHT22;6073;53.230;10.444;2022-11-03T07:38:32;8.40;99.90
12025;DHT22;6073;53.230;10.444;2022-11-03T07:40:58;8.50;99.90
12025;DHT22;6073;53.230;10.444;2022-11-03T07:43:29;8.50;99.90
12025;DHT22;6073;53.230;10.444;2022-11-03T07:45:57;8.60;99.90
12025;DHT22;6073;53.230;10.444;2022-11-03T07:51:23;8.80;99.90
12025;DHT22;6073;53.230;10.444;2022-11-03T07:53:50;8.80;99.90
12025;DHT22;6073;53.230;10.444;2022-11-03T07:56:22;8.80;99.90
12025;DHT22;6073;53.230;10.444;2022-11-03T08:01:43;9.00;99.90
12025;DHT22;6073;53.230;10.444;2022-11-03T08:04:17;9.00;99.90
12025;DHT22;6073;53.230;10.444;2022-11-03T08:06:44;9.00;99.90
12025;DHT22;6073;53.230;10.444;2022-11-03T08:09:10;9.00;99.90
12025;DHT22;6073;53.230;10.444;2022-11-03T08:11:36;9.10;99.90
12025;DHT22;6073;53.230;10.444;2022-11-03T08:14:01;9.10;99.90
12025;DHT22;6073;53.230;10.444;2022-11-03T08:16:27;9.10;99.90
12025;DHT22;6073;53.230;10.444;2022-11-03T08:18:52;9.20;99.90
12025;DHT22;6073;53.230;10.444;2022-11-03T08:21:18;9.10;99.90
12025;DHT22;6073;53.230;10.444;2022-11-03T08:23:43;9.10;99.90
12025;DHT22;6073;53.230;10.444;2022-11-03T08:26:09;9.20;99.90
12025;DHT22;6073;53.230;10.444;2022-11-03T08:28:35;9.20;99.90
12025;DHT22;6073;53.230;10.444;2022-11-03T08:31:00;9.20;99.90
12025;DHT22;6073;53.230;10.444;2022-11-03T08:33:33;9.30;99.90
12025;DHT22;6073;53.230;10.444;2022-11-03T08:36:00;9.30;99.90
12025;DHT22;6073;53.230;10.444;2022-11-03T08:38:27;9.40;99.90
12025;DHT22;6073;53.230;10.444;2022-11-03T08:40:53;9.40;99.90
12025;DHT22;6073;53.230;10.444;2022-11-03T08:43:19;9.50;99.90
12025;DHT22;6073;53.230;10.444;2022-11-03T08:45:45;9.50;99.90
12025;DHT22;6073;53.230;10.444;2022-11-03T08:48:11;9.60;99.90
12025;DHT22;6073;53.230;10.444;2022-11-03T08:50:37;9.70;99.90
12025;DHT22;6073;53.230;10.444;2022-11-03T08:53:03;9.70;99.90
12025;DHT22;6073;53.230;10.444;2022-11-03T08:55:28;9.80;99.90
12025;DHT22;6073;53.230;10.444;2022-11-03T08:57:54;9.80;99.90
12025;DHT22;6073;53.230;10.444;2022-11-03T09:00:20;9.90;99.90
12025;DHT22;6073;53.230;10.444;2022-11-03T09:02:46;10.00;99.90
12025;DHT22;6073;53.230;10.444;2022-11-03T09:05:12;10.10;99.90
12025;DHT22;6073;53.230;10.444;2022-11-03T09:07:38;10.20;99.90
12025;DHT22;6073;53.230;10.444;2022-11-03T09:10:06;10.30;99.90
12025;DHT22;6073;53.230;10.444;2022-11-03T09:12:32;10.40;99.90
12025;DHT22;6073;53.230;10.444;2022-11-03T09:14:58;10.40;99.90
12025;DHT22;6073;53.230;10.444;2022-11-03T09:17:24;10.40;99.90
12025;DHT22;6073;53.230;10.444;2022-11-03T09:19:49;10.50;99.90
12025;DHT22;6073;53.230;10.444;2022-11-03T09:22:15;10.60;99.90
12025;DHT22;6073;53.230;10.444;2022-11-03T09:24:41;10.70;99.90
12025;DHT22;6073;53.230;10.444;2022-11-03T09:27:07;10.80;99.90
12025;DHT22;6073;53.230;10.444;2022-11-03T09:29:32;10.80;99.90
12025;DHT22;6073;53.230;10.444;2022-11-03T09:31:58;10.90;99.90
12025;DHT22;6073;53.230;10.444;2022-11-03T09:34:25;11.00;99.90
12025;DHT22;6073;53.230;10.444;2022-11-03T09:36:51;11.10;99.90
12025;DHT22;6073;53.230;10.444;2022-11-03T09:39:16;11.20;99.90
12025;DHT22;6073;53.230;10.444;2022-11-03T09:41:42;11.30;99.90
12025;DHT22;6073;53.230;10.444;2022-11-03T09:44:08;11.40;99.90
12025;DHT22;6073;53.230;10.444;2022-11-03T09:46:33;11.50;99.90
12025;DHT22;6073;53.230;10.444;2022-11-03T09:49:03;11.60;99.90
12025;DHT22;6073;53.230;10.444;2022-11-03T09:51:29;11.80;99.90
12025;DHT22;6073;53.230;10.444;2022-11-03T09:53:58;12.00;99.90
12025;DHT22;6073;53.230;10.444;2022-11-03T09:56:26;12.20;99.90
12025;DHT22;6073;53.230;10.444;2022-11-03T09:58:52;12.40;99.90
12025;DHT22;6073;53.230;10.444;2022-11-03T10:01:17;12.40;99.90
12025;DHT22;6073;53.230;10.444;2022-11-03T10:03:43;12.50;99.90
12025;DHT22;6073;53.230;10.444;2022-11-03T10:06:09;12.50;99.90
12025;DHT22;6073;53.230;10.444;2022-11-03T10:08:36;12.40;99.90
12025;DHT22;6073;53.230;10.444;2022-11-03T10:11:03;12.60;99.90
12025;DHT22;6073;53.230;10.444;2022-11-03T10:13:36;12.80;99.90
12025;DHT22;6073;53.230;10.444;2022-11-03T10:16:05;12.90;99.90
12025;DHT22;6073;53.230;10.444;2022-11-03T10:18:32;12.90;99.90
12025;DHT22;6073;53.230;10.444;2022-11-03T10:21:06;13.00;99.90
12025;DHT22;6073;53.230;10.444;2022-11-03T10:23:36;13.10;99.90
12025;DHT22;6073;53.230;10.444;2022-11-03T10:26:10;13.20;99.90
12025;DHT22;6073;53.230;10.444;2022-11-03T10:28:36;13.30;99.90
12025;DHT22;6073;53.230;10.444;2022-11-03T10:31:04;13.30;99.90
12025;DHT22;6073;53.230;10.444;2022-11-03T10:33:36;13.30;99.90
12025;DHT22;6073;53.230;10.444;2022-11-03T10:36:04;13.30;99.90
12025;DHT22;6073;53.230;10.444;2022-11-03T10:38:37;13.40;99.90
12025;DHT22;6073;53.230;10.444;2022-11-03T10:41:15;13.60;99.90
12025;DHT22;6073;53.230;10.444;2022-11-03T10:44:01;13.70;99.90
12025;DHT22;6073;53.230;10.444;2022-11-03T10:46:27;13.80;99.90
12025;DHT22;6073;53.230;10.444;2022-11-03T10:49:14;13.90;99.90
12025;DHT22;6073;53.230;10.444;2022-11-03T10:51:41;13.90;99.90
12025;DHT22;6073;53.230;10.444;2022-11-03T10:54:11;14.00;99.90
12025;DHT22;6073;53.230;10.444;2022-11-03T10:56:37;14.00;99.90
12025;DHT22;6073;53.230;10.444;2022-11-03T10:59:03;14.10;99.90
12025;DHT22;6073;53.230;10.444;2022-11-03T11:01:28;14.20;99.90
12025;DHT22;6073;53.230;10.444;2022-11-03T11:03:54;14.40;99.90
12025;DHT22;6073;53.230;10.444;2022-11-03T11:06:30;14.60;99.90
12025;DHT22;6073;53.230;10.444;2022-11-03T11:09:03;14.70;99.90
12025;DHT22;6073;53.230;10.444;2022-11-03T11:11:30;14.60;99.90
12025;DHT22;6073;53.230;10.444;2022-11-03T11:14:22;14.80;99.90
12025;DHT22;6073;53.230;10.444;2022-11-03T11:16:55;14.80;99.90
12025;DHT22;6073;53.230;10.444;2022-11-03T11:19:22;14.70;99.90
12025;DHT22;6073;53.230;10.444;2022-11-03T11:30:00;14.50;99.90
12025;DHT22;6073;53.230;10.444;2022-11-03T11:35:08;14.40;99.90
12025;DHT22;6073;53.230;10.444;2022-11-03T11:37:35;14.30;99.90
12025;DHT22;6073;53.230;10.444;2022-11-03T11:40:02;14.40;99.90
12025;DHT22;6073;53.230;10.444;2022-11-03T11:42:27;14.30;99.90
12025;DHT22;6073;53.230;10.444;2022-11-03T11:44:58;14.20;99.90
12025;DHT22;6073;53.230;10.444;2022-11-03T11:52:40;14.00;99.90
12025;DHT22;6073;53.230;10.444;2022-11-03T11:58:00;14.00;99.90
12025;DHT22;6073;53.230;10.444;2022-11-03T12:00:29;13.90;99.90
12025;DHT22;6073;53.230;10.444;2022-11-03T12:02:56;14.00;99.90
12025;DHT22;6073;53.230;10.444;2022-11-03T12:05:25;14.00;99.90
12025;DHT22;6073;53.230;10.444;2022-11-03T12:07:53;14.10;99.90
12025;DHT22;6073;53.230;10.444;2022-11-03T12:10:36;14.00;99.90
12025;DHT22;6073;53.230;10.444;2022-11-03T12:13:37;14.00;99.90
12025;DHT22;6073;53.230;10.444;2022-11-03T12:16:04;14.00;99.90
12025;DHT22;6073;53.230;10.444;2022-11-03T12:18:41;14.10;99.90
12025;DHT22;6073;53.230;10.444;2022-11-03T12:21:10;14.10;99.90
12025;DHT22;6073;53.230;10.444;2022-11-03T12:23:43;14.10;99.90
12025;DHT22;6073;53.230;10.444;2022-11-03T12:27:02;14.10;99.90
12025;DHT22;6073;53.230;10.444;2022-11-03T12:29:04;14.20;99.90
12025;DHT22;6073;53.230;10.444;2022-11-03T12:31:30;14.20;99.90
12025;DHT22;6073;53.230;10.444;2022-11-03T12:33:55;14.20;99.90
12025;DHT22;6073;53.230;10.444;2022-11-03T12:36:21;14.20;99.90
12025;DHT22;6073;53.230;10.444;2022-11-03T12:38:46;14.40;99.90
12025;DHT22;6073;53.230;10.444;2022-11-03T12:41:12;14.40;99.90
12025;DHT22;6073;53.230;10.444;2022-11-03T12:43:51;14.60;99.90
12025;DHT22;6073;53.230;10.444;2022-11-03T12:46:19;14.50;99.90
12025;DHT22;6073;53.230;10.444;2022-11-03T12:48:45;14.50;99.90
12025;DHT22;6073;53.230;10.444;2022-11-03T12:51:13;14.40;99.90
12025;DHT22;6073;53.230;10.444;2022-11-03T12:53:39;14.40;99.90
12025;DHT22;6073;53.230;10.444;2022-11-03T12:56:06;14.40;99.90
12025;DHT22;6073;53.230;10.444;2022-11-03T12:58:32;14.30;99.90
12025;DHT22;6073;53.230;10.444;2022-11-03T13:01:01;14.20;99.90
12025;DHT22;6073;53.230;10.444;2022-11-03T13:03:27;14.10;99.90
12025;DHT22;6073;53.230;10.444;2022-11-03T13:05:53;14.10;99.90
12025;DHT22;6073;53.230;10.444;2022-11-03T13:08:22;14.00;99.90
12025;DHT22;6073;53.230;10.444;2022-11-03T13:10:47;14.00;99.90
12025;DHT22;6073;53.230;10.444;2022-11-03T13:13:13;14.00;99.90
12025;DHT22;6073;53.230;10.444;2022-11-03T13:15:38;14.00;99.90
12025;DHT22;6073;53.230;10.444;2022-11-03T13:18:04;14.10;99.90
12025;DHT22;6073;53.230;10.444;2022-11-03T13:20:31;14.10;99.90
12025;DHT22;6073;53.230;10.444;2022-11-03T13:22:57;14.20;99.90
12025;DHT22;6073;53.230;10.444;2022-11-03T13:25:22;14.20;99.90
12025;DHT22;6073;53.230;10.444;2022-11-03T13:27:52;14.10;99.90
12025;DHT22;6073;53.230;10.444;2022-11-03T13:30:27;14.10;99.90
12025;DHT22;6073;53.230;10.444;2022-11-03T13:32:53;14.00;99.90
12025;DHT22;6073;53.230;10.444;2022-11-03T13:35:19;14.00;99.90
12025;DHT22;6073;53.230;10.444;2022-11-03T13:37:44;13.90;99.90
12025;DHT22;6073;53.230;10.444;2022-11-03T13:40:14;13.90;99.90
12025;DHT22;6073;53.230;10.444;2022-11-03T13:42:40;13.80;99.90
12025;DHT22;6073;53.230;10.444;2022-11-03T13:45:06;13.80;99.90
12025;DHT22;6073;53.230;10.444;2022-11-03T13:47:33;13.70;99.90
12025;DHT22;6073;53.230;10.444;2022-11-03T13:49:58;13.60;99.90
12025;DHT22;6073;53.230;10.444;2022-11-03T13:52:28;13.50;99.90
12025;DHT22;6073;53.230;10.444;2022-11-03T13:54:54;13.50;99.90
12025;DHT22;6073;53.230;10.444;2022-11-03T13:57:20;13.40;99.90
12025;DHT22;6073;53.230;10.444;2022-11-03T13:59:46;13.40;99.90
12025;DHT22;6073;53.230;10.444;2022-11-03T14:02:11;13.50;99.90
12025;DHT22;6073;53.230;10.444;2022-11-03T14:04:38;13.40;99.90
12025;DHT22;6073;53.230;10.444;2022-11-03T14:07:04;13.40;99.90
12025;DHT22;6073;53.230;10.444;2022-11-03T14:09:30;13.30;99.90
12025;DHT22;6073;53.230;10.444;2022-11-03T14:11:56;13.30;99.90
12025;DHT22;6073;53.230;10.444;2022-11-03T14:14:40;13.20;99.90
12025;DHT22;6073;53.230;10.444;2022-11-03T14:17:09;13.30;99.90
12025;DHT22;6073;53.230;10.444;2022-11-03T14:19:35;13.30;99.90
12025;DHT22;6073;53.230;10.444;2022-11-03T14:22:01;13.20;99.90
12025;DHT22;6073;53.230;10.444;2022-11-03T14:24:27;13.20;99.90
12025;DHT22;6073;53.230;10.444;2022-11-03T14:26:52;13.20;99.90
12025;DHT22;6073;53.230;10.444;2022-11-03T14:29:18;13.10;99.90
12025;DHT22;6073;53.230;10.444;2022-11-03T14:31:44;13.00;99.90
12025;DHT22;6073;53.230;10.444;2022-11-03T14:34:10;13.10;99.90
12025;DHT22;6073;53.230;10.444;2022-11-03T14:36:36;13.10;99.90
12025;DHT22;6073;53.230;10.444;2022-11-03T14:41:51;13.00;99.90
12025;DHT22;6073;53.230;10.444;2022-11-03T14:44:34;13.00;99.90
12025;DHT22;6073;53.230;10.444;2022-11-03T14:47:01;13.00;99.90
12025;DHT22;6073;53.230;10.444;2022-11-03T14:49:28;12.90;99.90
12025;DHT22;6073;53.230;10.444;2022-11-03T14:51:54;12.80;99.90
12025;DHT22;6073;53.230;10.444;2022-11-03T14:54:24;12.80;99.90
12025;DHT22;6073;53.230;10.444;2022-11-03T14:56:50;12.90;99.90
12025;DHT22;6073;53.230;10.444;2022-11-03T14:59:16;12.80;99.90
12025;DHT22;6073;53.230;10.444;2022-11-03T15:01:42;12.80;99.90
12025;DHT22;6073;53.230;10.444;2022-11-03T15:04:07;12.80;99.90
12025;DHT22;6073;53.230;10.444;2022-11-03T15:06:34;12.80;99.90
12025;DHT22;6073;53.230;10.444;2022-11-03T15:09:03;12.80;99.90
12025;DHT22;6073;53.230;10.444;2022-11-03T15:11:29;12.70;99.90
12025;DHT22;6073;53.230;10.444;2022-11-03T15:13:54;12.70;99.90
12025;DHT22;6073;53.230;10.444;2022-11-03T15:16:21;12.70;99.90
12025;DHT22;6073;53.230;10.444;2022-11-03T15:18:52;12.70;99.90
12025;DHT22;6073;53.230;10.444;2022-11-03T15:21:17;12.60;99.90
12025;DHT22;6073;53.230;10.444;2022-11-03T15:23:43;12.60;99.90
12025;DHT22;6073;53.230;10.444;2022-11-03T15:26:09;12.60;99.90
12025;DHT22;6073;53.230;10.444;2022-11-03T15:28:36;12.50;99.90
12025;DHT22;6073;53.230;10.444;2022-11-03T15:31:02;12.50;99.90
12025;DHT22;6073;53.230;10.444;2022-11-03T15:33:27;12.40;99.90
12025;DHT22;6073;53.230;10.444;2022-11-03T15:35:54;12.40;99.90
12025;DHT22;6073;53.230;10.444;2022-11-03T15:38:19;12.20;99.90
12025;DHT22;6073;53.230;10.444;2022-11-03T15:40:45;12.20;99.90
12025;DHT22;6073;53.230;10.444;2022-11-03T15:43:11;12.20;99.90
12025;DHT22;6073;53.230;10.444;2022-11-03T15:45:36;12.20;99.90
12025;DHT22;6073;53.230;10.444;2022-11-03T15:48:02;12.20;99.90
12025;DHT22;6073;53.230;10.444;2022-11-03T15:50:28;12.30;99.90
12025;DHT22;6073;53.230;10.444;2022-11-03T15:52:53;12.30;99.90
12025;DHT22;6073;53.230;10.444;2022-11-03T15:55:21;12.30;99.90
12025;DHT22;6073;53.230;10.444;2022-11-03T15:57:48;12.20;99.90
12025;DHT22;6073;53.230;10.444;2022-11-03T16:00:13;12.20;99.90
12025;DHT22;6073;53.230;10.444;2022-11-03T16:02:40;12.10;99.90
12025;DHT22;6073;53.230;10.444;2022-11-03T16:05:07;12.10;99.90
12025;DHT22;6073;53.230;10.444;2022-11-03T16:07:33;12.10;99.90
12025;DHT22;6073;53.230;10.444;2022-11-03T16:09:58;12.10;99.90
12025;DHT22;6073;53.230;10.444;2022-11-03T16:12:24;12.00;99.90
12025;DHT22;6073;53.230;10.444;2022-11-03T16:14:51;12.00;99.90
12025;DHT22;6073;53.230;10.444;2022-11-03T16:17:17;12.00;99.90
12025;DHT22;6073;53.230;10.444;2022-11-03T16:19:43;12.00;99.90
12025;DHT22;6073;53.230;10.444;2022-11-03T16:22:09;12.00;99.90
12025;DHT22;6073;53.230;10.444;2022-11-03T16:24:34;11.90;99.90
12025;DHT22;6073;53.230;10.444;2022-11-03T16:27:00;11.80;99.90
12025;DHT22;6073;53.230;10.444;2022-11-03T16:29:27;11.80;99.90
12025;DHT22;6073;53.230;10.444;2022-11-03T16:31:52;11.80;99.90
12025;DHT22;6073;53.230;10.444;2022-11-03T16:34:18;11.70;99.90
12025;DHT22;6073;53.230;10.444;2022-11-03T16:36:43;11.70;99.90
12025;DHT22;6073;53.230;10.444;2022-11-03T16:39:09;11.70;99.90
12025;DHT22;6073;53.230;10.444;2022-11-03T16:41:35;11.70;99.90
12025;DHT22;6073;53.230;10.444;2022-11-03T16:44:01;11.70;99.90